DAL2202 KLAS-KLAX
Flight info
| Callsign | DAL2202 |
|---|---|
| Flight time | 0h 37m |
| Altitude | 28000 |
| Route | RADYR2 BLAQQ SHTNR ANJLL4 |
| Aircraft | B739/M-SDE2E3FGHIRWXY/LB1 |
Departure
| Time | 2026-05-08 05:11 |
|---|---|
| Airport | Harry Reid International Airport (KLAS) |
Arrival
| Time | 2026-05-08 05:49 |
|---|---|
| Airport | Los Angeles International Airport (KLAX) |
| Time | Latitude | Longitude | Altitude | Speed | Heading |
|---|---|---|---|---|---|
| 2026-05-08 04:49 | 36.07988 | -115.13959 | 2093 ft | 0 kts | 355° |
| 2026-05-08 04:56 | 36.07987 | -115.13959 | 2093 ft | 0 kts | 355° |
| 2026-05-08 04:57 | 36.07988 | -115.13959 | 2093 ft | 0 kts | 355° |
| 2026-05-08 04:58 | 36.07980 | -115.13958 | 2093 ft | 2 kts | 348° |
| 2026-05-08 04:58 | 36.07966 | -115.13950 | 2093 ft | 2 kts | 327° |
| 2026-05-08 04:58 | 36.07955 | -115.13939 | 2093 ft | 2 kts | 309° |
| 2026-05-08 04:58 | 36.07947 | -115.13923 | 2092 ft | 2 kts | 291° |
| 2026-05-08 04:59 | 36.07944 | -115.13905 | 2092 ft | 2 kts | 272° |
| 2026-05-08 04:59 | 36.07946 | -115.13886 | 2091 ft | 2 kts | 253° |
| 2026-05-08 04:59 | 36.07952 | -115.13869 | 2091 ft | 2 kts | 235° |
| 2026-05-08 04:59 | 36.07957 | -115.13861 | 2091 ft | 1 kts | 224° |
| 2026-05-08 05:00 | 36.07960 | -115.13857 | 2091 ft | 0 kts | 225° |
| 2026-05-08 05:01 | 36.07957 | -115.13861 | 2091 ft | 2 kts | 225° |
| 2026-05-08 05:01 | 36.07932 | -115.13893 | 2092 ft | 8 kts | 225° |
| 2026-05-08 05:02 | 36.07895 | -115.13937 | 2094 ft | 6 kts | 222° |
| 2026-05-08 05:02 | 36.07832 | -115.13911 | 2094 ft | 14 kts | 115° |
| 2026-05-08 05:02 | 36.07825 | -115.13778 | 2090 ft | 15 kts | 91° |
| 2026-05-08 05:02 | 36.07824 | -115.13636 | 2086 ft | 17 kts | 88° |
| 2026-05-08 05:03 | 36.07827 | -115.13479 | 2082 ft | 18 kts | 91° |
| 2026-05-08 05:03 | 36.07827 | -115.13313 | 2078 ft | 19 kts | 90° |
| 2026-05-08 05:03 | 36.07827 | -115.13142 | 2075 ft | 20 kts | 90° |
| 2026-05-08 05:03 | 36.07827 | -115.12963 | 2071 ft | 20 kts | 90° |
| 2026-05-08 05:04 | 36.07827 | -115.12781 | 2067 ft | 21 kts | 90° |
| 2026-05-08 05:04 | 36.07826 | -115.12595 | 2065 ft | 21 kts | 91° |
| 2026-05-08 05:04 | 36.07827 | -115.12411 | 2063 ft | 21 kts | 90° |
| 2026-05-08 05:04 | 36.07819 | -115.12264 | 2061 ft | 13 kts | 116° |
| 2026-05-08 05:05 | 36.07764 | -115.12173 | 2061 ft | 13 kts | 128° |
| 2026-05-08 05:05 | 36.07745 | -115.12148 | 2061 ft | 0 kts | 142° |
| 2026-05-08 05:10 | 36.07742 | -115.12144 | 2061 ft | 2 kts | 144° |
| 2026-05-08 05:10 | 36.07645 | -115.12186 | 2061 ft | 9 kts | 267° |
| 2026-05-08 05:10 | 36.07643 | -115.12329 | 2063 ft | 37 kts | 269° |
| 2026-05-08 05:11 | 36.07642 | -115.12955 | 2073 ft | 105 kts | 271° |
| 2026-05-08 05:11 | 36.07640 | -115.14108 | 2102 ft | 161 kts | 269° |
| 2026-05-08 05:11 | 36.07646 | -115.15626 | 2488 ft | 176 kts | 269° |
| 2026-05-08 05:11 | 36.07650 | -115.17091 | 2946 ft | 177 kts | 267° |
| 2026-05-08 05:12 | 36.07633 | -115.18697 | 3183 ft | 193 kts | 268° |
| 2026-05-08 05:12 | 36.07623 | -115.20418 | 3449 ft | 209 kts | 266° |
| 2026-05-08 05:12 | 36.07449 | -115.22277 | 3764 ft | 226 kts | 259° |
| 2026-05-08 05:12 | 36.07055 | -115.24215 | 4199 ft | 242 kts | 246° |
| 2026-05-08 05:13 | 36.06091 | -115.25912 | 4765 ft | 251 kts | 221° |
| 2026-05-08 05:13 | 36.04554 | -115.27057 | 5254 ft | 267 kts | 203° |
| 2026-05-08 05:13 | 36.02783 | -115.27861 | 5844 ft | 277 kts | 200° |
| 2026-05-08 05:13 | 36.00972 | -115.28634 | 6612 ft | 279 kts | 200° |
| 2026-05-08 05:14 | 35.99095 | -115.29399 | 7278 ft | 286 kts | 197° |
| 2026-05-08 05:14 | 35.97139 | -115.29974 | 7959 ft | 292 kts | 193° |
| 2026-05-08 05:14 | 35.95128 | -115.30462 | 8630 ft | 298 kts | 192° |
| 2026-05-08 05:14 | 35.93085 | -115.30934 | 9316 ft | 303 kts | 192° |
| 2026-05-08 05:15 | 35.91031 | -115.31416 | 10015 ft | 307 kts | 192° |
| 2026-05-08 05:15 | 35.88873 | -115.31937 | 10547 ft | 319 kts | 192° |
| 2026-05-08 05:15 | 35.86639 | -115.32485 | 10928 ft | 335 kts | 192° |
| 2026-05-08 05:15 | 35.84301 | -115.33061 | 11310 ft | 351 kts | 192° |
| 2026-05-08 05:16 | 35.81845 | -115.33666 | 11700 ft | 367 kts | 192° |
| 2026-05-08 05:16 | 35.79314 | -115.34288 | 12045 ft | 383 kts | 192° |
| 2026-05-08 05:16 | 35.76641 | -115.34943 | 12390 ft | 398 kts | 192° |
| 2026-05-08 05:16 | 35.73900 | -115.35612 | 13000 ft | 405 kts | 192° |
| 2026-05-08 05:17 | 35.71102 | -115.36294 | 13765 ft | 408 kts | 191° |
| 2026-05-08 05:17 | 35.68302 | -115.36977 | 14443 ft | 413 kts | 192° |
| 2026-05-08 05:17 | 35.65473 | -115.37666 | 15182 ft | 417 kts | 191° |
| 2026-05-08 05:17 | 35.62623 | -115.38277 | 15862 ft | 422 kts | 188° |
| 2026-05-08 05:18 | 35.59698 | -115.38639 | 16597 ft | 425 kts | 182° |
| 2026-05-08 05:18 | 35.56714 | -115.38680 | 17262 ft | 429 kts | 178° |
| 2026-05-08 05:18 | 35.53738 | -115.38521 | 17910 ft | 433 kts | 176° |
| 2026-05-08 05:18 | 35.50705 | -115.38261 | 18614 ft | 436 kts | 175° |
| 2026-05-08 05:19 | 35.47695 | -115.37999 | 19215 ft | 441 kts | 176° |
| 2026-05-08 05:19 | 35.44615 | -115.38071 | 19860 ft | 445 kts | 185° |
| 2026-05-08 05:19 | 35.41531 | -115.38757 | 20459 ft | 449 kts | 195° |
| 2026-05-08 05:19 | 35.38585 | -115.40050 | 21067 ft | 452 kts | 205° |
| 2026-05-08 05:20 | 35.35794 | -115.41762 | 21635 ft | 456 kts | 210° |
| 2026-05-08 05:20 | 35.33014 | -115.43702 | 22214 ft | 459 kts | 211° |
| 2026-05-08 05:20 | 35.30248 | -115.45693 | 22718 ft | 464 kts | 212° |
| 2026-05-08 05:20 | 35.27465 | -115.47681 | 23260 ft | 468 kts | 211° |
| 2026-05-08 05:21 | 35.24618 | -115.49671 | 23869 ft | 470 kts | 211° |
| 2026-05-08 05:21 | 35.21766 | -115.51617 | 24362 ft | 475 kts | 210° |
| 2026-05-08 05:21 | 35.18845 | -115.53570 | 24881 ft | 478 kts | 210° |
| 2026-05-08 05:21 | 35.15905 | -115.55557 | 25366 ft | 482 kts | 212° |
| 2026-05-08 05:22 | 35.13159 | -115.57820 | 25969 ft | 481 kts | 218° |
| 2026-05-08 05:22 | 35.10585 | -115.60413 | 26743 ft | 477 kts | 223° |
| 2026-05-08 05:22 | 35.08167 | -115.63165 | 27400 ft | 475 kts | 226° |
| 2026-05-08 05:22 | 35.05817 | -115.66034 | 27948 ft | 475 kts | 227° |
| 2026-05-08 05:23 | 35.03509 | -115.68957 | 28028 ft | 478 kts | 228° |
| 2026-05-08 05:23 | 34.98983 | -115.74803 | 27998 ft | 474 kts | 228° |
| 2026-05-08 05:23 | 34.96692 | -115.77771 | 27998 ft | 485 kts | 228° |
| 2026-05-08 05:24 | 34.94362 | -115.80781 | 28002 ft | 496 kts | 228° |
| 2026-05-08 05:24 | 34.89555 | -115.86954 | 28005 ft | 503 kts | 227° |
| 2026-05-08 05:25 | 34.84721 | -115.93109 | 28017 ft | 502 kts | 227° |
| 2026-05-08 05:25 | 34.79900 | -115.99224 | 28018 ft | 502 kts | 227° |
| 2026-05-08 05:26 | 34.75046 | -116.05369 | 28015 ft | 501 kts | 227° |
| 2026-05-08 05:26 | 34.70226 | -116.11501 | 28019 ft | 509 kts | 227° |
| 2026-05-08 05:27 | 34.65340 | -116.17723 | 28036 ft | 508 kts | 227° |
| 2026-05-08 05:27 | 34.60448 | -116.23940 | 28049 ft | 508 kts | 227° |
| 2026-05-08 05:28 | 34.55589 | -116.30100 | 28067 ft | 507 kts | 227° |
| 2026-05-08 05:28 | 34.50691 | -116.36295 | 28070 ft | 507 kts | 227° |
| 2026-05-08 05:29 | 34.45835 | -116.42429 | 28076 ft | 507 kts | 228° |
| 2026-05-08 05:29 | 34.41385 | -116.49055 | 28099 ft | 505 kts | 238° |
| 2026-05-08 05:30 | 34.37870 | -116.56359 | 28113 ft | 503 kts | 244° |
| 2026-05-08 05:30 | 34.34810 | -116.63788 | 28150 ft | 481 kts | 246° |
| 2026-05-08 05:30 | 34.33363 | -116.67403 | 27885 ft | 470 kts | 245° |
| 2026-05-08 05:31 | 34.31959 | -116.70938 | 27489 ft | 461 kts | 246° |
| 2026-05-08 05:31 | 34.30585 | -116.74432 | 27111 ft | 453 kts | 246° |
| 2026-05-08 05:31 | 34.29252 | -116.77825 | 26620 ft | 448 kts | 246° |
| 2026-05-08 05:31 | 34.27915 | -116.81216 | 26050 ft | 445 kts | 246° |
| 2026-05-08 05:32 | 34.26596 | -116.84545 | 25464 ft | 442 kts | 246° |
| 2026-05-08 05:32 | 34.25257 | -116.87908 | 24854 ft | 440 kts | 246° |
| 2026-05-08 05:32 | 34.23937 | -116.91206 | 24254 ft | 437 kts | 245° |
| 2026-05-08 05:32 | 34.22617 | -116.94490 | 23651 ft | 435 kts | 245° |
| 2026-05-08 05:33 | 34.21326 | -116.97746 | 23044 ft | 432 kts | 247° |
| 2026-05-08 05:33 | 34.20189 | -117.01100 | 22450 ft | 429 kts | 251° |
| 2026-05-08 05:33 | 34.19215 | -117.04478 | 21830 ft | 427 kts | 253° |
| 2026-05-08 05:33 | 34.18310 | -117.07881 | 21196 ft | 426 kts | 254° |
| 2026-05-08 05:34 | 34.17431 | -117.11283 | 20565 ft | 425 kts | 254° |
| 2026-05-08 05:34 | 34.16552 | -117.14684 | 19923 ft | 421 kts | 254° |
| 2026-05-08 05:34 | 34.15673 | -117.18042 | 19273 ft | 420 kts | 254° |
| 2026-05-08 05:34 | 34.14784 | -117.21384 | 18645 ft | 419 kts | 253° |
| 2026-05-08 05:35 | 34.13872 | -117.24777 | 17996 ft | 418 kts | 253° |
| 2026-05-08 05:35 | 34.12970 | -117.28100 | 17329 ft | 417 kts | 253° |
| 2026-05-08 05:35 | 34.12068 | -117.31401 | 16695 ft | 414 kts | 253° |
| 2026-05-08 05:35 | 34.11174 | -117.34654 | 16060 ft | 410 kts | 253° |
| 2026-05-08 05:36 | 34.10285 | -117.37885 | 15462 ft | 400 kts | 253° |
| 2026-05-08 05:36 | 34.09455 | -117.41045 | 14866 ft | 390 kts | 254° |
| 2026-05-08 05:36 | 34.08684 | -117.44127 | 14289 ft | 381 kts | 255° |
| 2026-05-08 05:36 | 34.07947 | -117.47128 | 13733 ft | 373 kts | 255° |
| 2026-05-08 05:37 | 34.07285 | -117.50101 | 13292 ft | 362 kts | 259° |
| 2026-05-08 05:37 | 34.06802 | -117.53042 | 12954 ft | 349 kts | 261° |
| 2026-05-08 05:37 | 34.06385 | -117.55884 | 12467 ft | 343 kts | 261° |
| 2026-05-08 05:37 | 34.05988 | -117.58691 | 11965 ft | 337 kts | 262° |
| 2026-05-08 05:38 | 34.05592 | -117.61484 | 11475 ft | 331 kts | 262° |
| 2026-05-08 05:38 | 34.05203 | -117.64185 | 10999 ft | 325 kts | 261° |
| 2026-05-08 05:38 | 34.04813 | -117.66846 | 10534 ft | 319 kts | 261° |
| 2026-05-08 05:38 | 34.04433 | -117.69428 | 10255 ft | 306 kts | 261° |
| 2026-05-08 05:39 | 34.04073 | -117.71868 | 10141 ft | 290 kts | 261° |
| 2026-05-08 05:39 | 34.03724 | -117.74207 | 9983 ft | 280 kts | 261° |
| 2026-05-08 05:39 | 34.03379 | -117.76521 | 9603 ft | 280 kts | 261° |
| 2026-05-08 05:39 | 34.03036 | -117.78835 | 9246 ft | 279 kts | 261° |
| 2026-05-08 05:40 | 34.02694 | -117.81132 | 8906 ft | 278 kts | 261° |
| 2026-05-08 05:40 | 34.02353 | -117.83409 | 8558 ft | 277 kts | 261° |
| 2026-05-08 05:40 | 34.02013 | -117.85689 | 8212 ft | 275 kts | 262° |
| 2026-05-08 05:40 | 34.01675 | -117.87943 | 7882 ft | 272 kts | 261° |
| 2026-05-08 05:41 | 34.01345 | -117.90146 | 7540 ft | 267 kts | 262° |
| 2026-05-08 05:41 | 34.01018 | -117.92329 | 7215 ft | 258 kts | 262° |
| 2026-05-08 05:41 | 34.00708 | -117.94402 | 6899 ft | 251 kts | 262° |
| 2026-05-08 05:41 | 34.00397 | -117.96459 | 6580 ft | 245 kts | 262° |
| 2026-05-08 05:42 | 34.00098 | -117.98447 | 6278 ft | 239 kts | 262° |
| 2026-05-08 05:42 | 33.99807 | -118.00395 | 5986 ft | 237 kts | 263° |
| 2026-05-08 05:42 | 33.99515 | -118.02352 | 5683 ft | 240 kts | 262° |
| 2026-05-08 05:42 | 33.99220 | -118.04340 | 5377 ft | 238 kts | 262° |
| 2026-05-08 05:43 | 33.98930 | -118.06282 | 5079 ft | 239 kts | 262° |
| 2026-05-08 05:43 | 33.98632 | -118.08260 | 4837 ft | 236 kts | 262° |
| 2026-05-08 05:43 | 33.98342 | -118.10188 | 4750 ft | 237 kts | 262° |
| 2026-05-08 05:43 | 33.98065 | -118.12160 | 4634 ft | 234 kts | 264° |
| 2026-05-08 05:44 | 33.97851 | -118.14082 | 4306 ft | 233 kts | 265° |
| 2026-05-08 05:44 | 33.97671 | -118.15987 | 4110 ft | 222 kts | 265° |
| 2026-05-08 05:44 | 33.97493 | -118.17802 | 3864 ft | 214 kts | 265° |
| 2026-05-08 05:44 | 33.97316 | -118.19541 | 3536 ft | 210 kts | 265° |
| 2026-05-08 05:45 | 33.97139 | -118.21276 | 3246 ft | 204 kts | 265° |
| 2026-05-08 05:45 | 33.96970 | -118.22936 | 2971 ft | 198 kts | 265° |
| 2026-05-08 05:45 | 33.96809 | -118.24535 | 2700 ft | 187 kts | 264° |
| 2026-05-08 05:45 | 33.96656 | -118.26046 | 2468 ft | 173 kts | 264° |
| 2026-05-08 05:46 | 33.96511 | -118.27480 | 2219 ft | 173 kts | 264° |
| 2026-05-08 05:46 | 33.96368 | -118.28882 | 1996 ft | 165 kts | 264° |
| 2026-05-08 05:46 | 33.96226 | -118.30278 | 1761 ft | 167 kts | 263° |
| 2026-05-08 05:46 | 33.96086 | -118.31657 | 1538 ft | 166 kts | 263° |
| 2026-05-08 05:47 | 33.95943 | -118.33046 | 1313 ft | 168 kts | 263° |
| 2026-05-08 05:47 | 33.95804 | -118.34437 | 1150 ft | 165 kts | 263° |
| 2026-05-08 05:47 | 33.95673 | -118.35790 | 976 ft | 163 kts | 263° |
| 2026-05-08 05:47 | 33.95539 | -118.37142 | 728 ft | 163 kts | 262° |
| 2026-05-08 05:48 | 33.95391 | -118.38493 | 446 ft | 160 kts | 262° |
| 2026-05-08 05:48 | 33.95256 | -118.39786 | 221 ft | 152 kts | 261° |
| 2026-05-08 05:48 | 33.95130 | -118.41005 | 125 ft | 138 kts | 262° |
| 2026-05-08 05:48 | 33.95033 | -118.41915 | 121 ft | 79 kts | 263° |
| 2026-05-08 05:49 | 33.94992 | -118.42340 | 118 ft | 27 kts | 262° |
| 2026-05-08 05:49 | 33.94932 | -118.42554 | 115 ft | 26 kts | 241° |
| 2026-05-08 05:49 | 33.94862 | -118.42668 | 113 ft | 0 kts | 226° |
| 2026-05-08 05:50 | 33.94859 | -118.42672 | 113 ft | 1 kts | 225° |
| 2026-05-08 05:50 | 33.94857 | -118.42674 | 113 ft | 0 kts | 225° |
| 2026-05-08 05:51 | 33.94841 | -118.42692 | 113 ft | 11 kts | 223° |
| 2026-05-08 05:52 | 33.94770 | -118.42754 | 112 ft | 12 kts | 207° |
| 2026-05-08 05:52 | 33.94680 | -118.42773 | 111 ft | 13 kts | 175° |
| 2026-05-08 05:52 | 33.94638 | -118.42697 | 111 ft | 12 kts | 89° |
| 2026-05-08 05:52 | 33.94649 | -118.42571 | 113 ft | 15 kts | 83° |
| 2026-05-08 05:53 | 33.94661 | -118.42454 | 115 ft | 12 kts | 83° |
| 2026-05-08 05:53 | 33.94673 | -118.42332 | 116 ft | 20 kts | 83° |
| 2026-05-08 05:53 | 33.94694 | -118.42125 | 118 ft | 26 kts | 83° |
| 2026-05-08 05:53 | 33.94715 | -118.41926 | 120 ft | 22 kts | 84° |
| 2026-05-08 05:54 | 33.94733 | -118.41746 | 121 ft | 20 kts | 83° |
| 2026-05-08 05:54 | 33.94751 | -118.41581 | 122 ft | 18 kts | 83° |
| 2026-05-08 05:54 | 33.94769 | -118.41433 | 123 ft | 16 kts | 73° |
| 2026-05-08 05:54 | 33.94793 | -118.41303 | 123 ft | 15 kts | 83° |
| 2026-05-08 05:55 | 33.94807 | -118.41173 | 123 ft | 18 kts | 83° |
| 2026-05-08 05:55 | 33.94824 | -118.41007 | 123 ft | 19 kts | 83° |
| 2026-05-08 05:55 | 33.94840 | -118.40846 | 123 ft | 18 kts | 83° |
| 2026-05-08 05:55 | 33.94856 | -118.40697 | 123 ft | 17 kts | 83° |
| 2026-05-08 05:56 | 33.94839 | -118.40610 | 122 ft | 10 kts | 161° |
| 2026-05-08 05:56 | 33.94772 | -118.40620 | 122 ft | 9 kts | 192° |
| 2026-05-08 05:56 | 33.94719 | -118.40645 | 122 ft | 7 kts | 213° |
| 2026-05-08 05:56 | 33.94704 | -118.40665 | 122 ft | 0 kts | 233° |